Ana Sayfa
METAR-TAF:

METAR-TAF

Havaalanları :

Norwood Memorial Airport

Norwood, Massachusetts, Amerika Birleşik Devletleri

Enlem: 42-11-27N, Boylam: 071-10-26W, yükseklik: 15 m

Güncel hava durumu gözlemi

Rapor saat 17:53 UTC de 16 dakika önce yapıldı.
Rüzgar güneybatıdan 7 kt
Sıcaklık 17°C
Nem 68%
Basınç 1006 hPa
Görüş mesafesi: 16.1 km
9000 ft yükseklikte çok bulutlu

METAR: KOWD 101753Z 22007KT 10SM OVC090 17/11 A2971 RMK AO2 SLP059 T01670111 10178 20150 56020

Saat: 13:09 (18:09 UTC)


TAF: eksik

4.000'den fazla havaalanı için hava durumu gözlemleri ve tahminleri (METAR ve TAF raporları).

Kullanılabilir istasyonlar harita üzerinde sarı ve kırmızı noktalarla gösterilir.

İstasyonun adını görmek için fareyi noktanın üzerinde gezdirin.

Sonrasında hava gözlem ve tahminlerini görmek için tıklayın.

Haritayı değiştirmek için: yaklaştırmak için siyah artı işaretli yeşil düğmeye ve uzaklaştırmak için de eksi işaretli düğmeye hızla tıklayın; bitişik haritalar için yeşil okları kullanın.


METAR-TAF: